createdAt,value
2018-02-01T00:00:39.170Z,98638.88
2018-02-01T00:03:08.385Z,98637.63
2018-02-01T00:05:37.666Z,98631.36
2018-02-01T00:08:06.877Z,98638.58
2018-02-01T00:10:36.095Z,98629.32
2018-02-01T00:13:05.312Z,98629.25
2018-02-01T00:15:34.601Z,98630.30
2018-02-01T00:18:05.314Z,98620.08
2018-02-01T00:20:34.561Z,98622.44
2018-02-01T00:23:03.788Z,98621.97
2018-02-01T00:25:33.034Z,98617.64
2018-02-01T00:28:03.030Z,98620.49
2018-02-01T00:30:33.747Z,98626.81
2018-02-01T00:33:02.971Z,98628.34
2018-02-01T00:35:32.305Z,98628.23
2018-02-01T00:38:01.532Z,98625.34
2018-02-01T00:40:30.733Z,98626.52
2018-02-01T00:42:59.935Z,98628.42
2018-02-01T00:45:29.167Z,98627.07
2018-02-01T00:47:58.338Z,98621.79
2018-02-01T00:50:27.537Z,98626.05
2018-02-01T00:52:56.826Z,98620.20
2018-02-01T00:55:26.067Z,98624.38
2018-02-01T00:57:56.062Z,98629.61
2018-02-01T01:00:26.191Z,98629.37
2018-02-01T01:02:55.411Z,98631.56
2018-02-01T01:05:24.639Z,98630.30
2018-02-01T01:07:53.831Z,98633.77
2018-02-01T01:10:23.090Z,98629.52
2018-02-01T01:12:53.167Z,98633.70
2018-02-01T01:15:22.592Z,98628.48
2018-02-01T01:17:51.859Z,98632.13
2018-02-01T01:20:21.085Z,98636.41
2018-02-01T01:22:51.793Z,98637.80
2018-02-01T01:25:21.004Z,98649.89
2018-02-01T01:27:50.890Z,98637.34
2018-02-01T01:30:20.109Z,98636.08
2018-02-01T01:32:49.333Z,98634.08
2018-02-01T01:35:18.557Z,98635.99
2018-02-01T01:37:48.528Z,98636.68
2018-02-01T01:40:17.779Z,98626.58
2018-02-01T01:42:46.974Z,98625.23
2018-02-01T01:45:16.973Z,98625.16
2018-02-01T01:47:47.034Z,98624.61
2018-02-01T01:50:16.262Z,98619.24
2018-02-01T01:52:45.514Z,98613.23
2018-02-01T01:55:14.713Z,98611.67
2018-02-01T01:57:44.040Z,98609.51
2018-02-01T02:00:13.376Z,98612.60
2018-02-01T02:02:42.719Z,98611.90
2018-02-01T02:05:11.983Z,98608.41
2018-02-01T02:07:41.987Z,98605.49
2018-02-01T02:10:11.222Z,98605.81
2018-02-01T02:12:40.455Z,98613.70
2018-02-01T02:15:09.694Z,98613.16
2018-02-01T02:17:40.308Z,98615.43
2018-02-01T02:20:09.541Z,98614.03
2018-02-01T02:22:39.598Z,98600.36
2018-02-01T02:25:08.842Z,98600.66
2018-02-01T02:27:38.787Z,98604.00
2018-02-01T02:30:07.990Z,98603.36
2018-02-01T02:32:37.205Z,98597.98
2018-02-01T02:35:06.408Z,98602.34
2018-02-01T02:37:35.665Z,98600.21
2018-02-01T02:40:05.638Z,98597.13
2018-02-01T02:42:34.923Z,98597.19
2018-02-01T02:45:04.151Z,98595.94
2018-02-01T02:47:33.346Z,98595.47
2018-02-01T02:50:03.336Z,98593.02
2018-02-01T02:52:32.596Z,98591.98
2018-02-01T02:55:01.828Z,98581.32
2018-02-01T02:57:31.182Z,98584.14
2018-02-01T03:00:01.130Z,98580.84
2018-02-01T03:02:30.354Z,98572.31
2018-02-01T03:04:59.561Z,98574.50
2018-02-01T03:07:28.944Z,98572.47
2018-02-01T03:09:58.138Z,98570.80
2018-02-01T03:12:27.438Z,98573.81
2018-02-01T03:14:56.728Z,98575.39
2018-02-01T03:17:25.965Z,98570.66
2018-02-01T03:19:55.996Z,98573.96
2018-02-01T03:22:25.283Z,98577.45
2018-02-01T03:24:55.261Z,98576.73
2018-02-01T03:27:24.522Z,98581.46
2018-02-01T03:29:53.709Z,98577.76
2018-02-01T03:32:23.121Z,98580.05
2018-02-01T03:34:52.355Z,98578.23
2018-02-01T03:37:21.576Z,98577.73
2018-02-01T03:39:50.906Z,98579.47
2018-02-01T03:42:20.111Z,98575.23
2018-02-01T03:44:49.354Z,98579.34
2018-02-01T03:47:18.578Z,98579.33
2018-02-01T03:49:47.827Z,98584.53
2018-02-01T03:52:17.048Z,98594.55
2018-02-01T03:54:46.330Z,98595.57
2018-02-01T03:57:15.630Z,98580.42
2018-02-01T03:59:44.862Z,98578.38
2018-02-01T04:02:14.059Z,98580.67
2018-02-01T04:04:43.298Z,98580.50
2018-02-01T04:07:12.506Z,98577.12
2018-02-01T04:09:41.741Z,98574.28
2018-02-01T04:12:10.957Z,98578.86
2018-02-01T04:14:40.159Z,98580.11
2018-02-01T04:17:09.363Z,98580.75
2018-02-01T04:19:39.339Z,98582.56
2018-02-01T04:22:08.856Z,98576.06
2018-02-01T04:24:38.080Z,98581.91
2018-02-01T04:27:08.073Z,98581.36
2018-02-01T04:29:37.271Z,98580.71
2018-02-01T04:32:06.499Z,98580.95
2018-02-01T04:34:36.584Z,98584.58
2018-02-01T04:37:05.826Z,98583.08
2018-02-01T04:39:35.122Z,98582.75
2018-02-01T04:42:04.363Z,98589.53
2018-02-01T04:44:34.334Z,98587.41
2018-02-01T04:47:03.551Z,98589.45
2018-02-01T04:49:32.886Z,98582.36
2018-02-01T04:52:02.102Z,98586.44
2018-02-01T04:54:31.346Z,98581.94
2018-02-01T04:57:00.583Z,98583.23
2018-02-01T04:59:29.791Z,98580.67
2018-02-01T05:01:59.087Z,98582.84
2018-02-01T05:04:28.314Z,98586.44
2018-02-01T05:06:58.282Z,98590.06
2018-02-01T05:09:28.281Z,98578.09
2018-02-01T05:11:57.493Z,98587.19
2018-02-01T05:14:26.746Z,98587.41
2018-02-01T05:16:56.720Z,98583.54
2018-02-01T05:19:25.953Z,98583.94
2018-02-01T05:21:55.935Z,98572.81
2018-02-01T05:24:25.106Z,98570.20
2018-02-01T05:26:54.396Z,98579.09
2018-02-01T05:29:23.672Z,98572.01
2018-02-01T05:31:52.888Z,98576.31
2018-02-01T05:34:22.075Z,98579.27
2018-02-01T05:36:51.290Z,98573.51
2018-02-01T05:39:20.494Z,98564.80
2018-02-01T05:41:49.705Z,98568.65
2018-02-01T05:44:18.890Z,98573.41
2018-02-01T05:46:48.099Z,98574.52
2018-02-01T05:49:18.120Z,98585.05
2018-02-01T05:51:47.331Z,98578.82
2018-02-01T05:54:16.547Z,98577.56
2018-02-01T05:56:46.586Z,98576.84
2018-02-01T05:59:15.855Z,98581.95
2018-02-01T06:01:45.146Z,98581.88
2018-02-01T06:04:14.344Z,98577.38
2018-02-01T06:06:43.558Z,98579.98
2018-02-01T06:09:12.798Z,98571.62
2018-02-01T06:11:42.050Z,98568.63
2018-02-01T06:14:12.043Z,98576.03
2018-02-01T06:16:41.304Z,98560.66
2018-02-01T06:19:11.251Z,98572.41
2018-02-01T06:21:40.465Z,98577.53
2018-02-01T06:24:09.722Z,98570.99
2018-02-01T06:26:38.963Z,98565.12
2018-02-01T06:29:08.406Z,98570.65
2018-02-01T06:31:37.908Z,98573.17
2018-02-01T06:34:07.422Z,98563.08
2018-02-01T06:36:36.859Z,98570.26
2018-02-01T06:39:06.420Z,98567.02
2018-02-01T06:41:35.769Z,98570.73
2018-02-01T06:44:05.168Z,98569.86
2018-02-01T06:46:34.654Z,98570.73
2018-02-01T06:49:04.058Z,98576.09
2018-02-01T06:51:33.960Z,98572.30
2018-02-01T06:54:03.497Z,98574.75
2018-02-01T06:56:32.689Z,98575.94
2018-02-01T06:59:02.011Z,98575.41
2018-02-01T07:01:32.974Z,98573.36
2018-02-01T07:04:02.988Z,98573.75
2018-02-01T07:06:32.974Z,98562.50
2018-02-01T07:09:02.181Z,98564.45
2018-02-01T07:11:31.379Z,98565.31
2018-02-01T07:14:00.606Z,98569.02
2018-02-01T07:16:29.794Z,98574.78
2018-02-01T07:18:59.860Z,98573.52
2018-02-01T07:21:29.036Z,98567.91
2018-02-01T07:23:58.554Z,98582.61
2018-02-01T07:26:27.795Z,98581.11
2018-02-01T07:28:57.801Z,98582.38
2018-02-01T07:31:27.023Z,98583.08
2018-02-01T07:33:56.995Z,98581.61
2018-02-01T07:36:26.269Z,98587.75
2018-02-01T07:38:56.189Z,98583.76
2018-02-01T07:41:25.412Z,98586.91
2018-02-01T07:43:54.723Z,98590.41
2018-02-01T07:46:23.915Z,98589.22
2018-02-01T07:48:53.152Z,98582.69
2018-02-01T07:51:23.737Z,98590.89
2018-02-01T07:53:52.938Z,98589.26
2018-02-01T07:56:22.180Z,98591.77
2018-02-01T07:58:51.404Z,98592.23
2018-02-01T08:01:20.619Z,98592.97
2018-02-01T08:03:49.822Z,98602.34
2018-02-01T08:06:19.026Z,98609.32
2018-02-01T08:08:48.243Z,98605.91
2018-02-01T08:11:18.194Z,98605.16
2018-02-01T08:13:47.599Z,98603.98
2018-02-01T08:16:16.788Z,98604.77
2018-02-01T08:18:46.044Z,98600.45
2018-02-01T08:21:15.241Z,98601.94
2018-02-01T08:23:45.242Z,98601.09
2018-02-01T08:26:14.443Z,98604.86
2018-02-01T08:28:43.658Z,98609.13
2018-02-01T08:31:12.918Z,98605.74
2018-02-01T08:33:42.131Z,98601.07
2018-02-01T08:36:11.357Z,98596.09
2018-02-01T08:38:42.076Z,98604.48
2018-02-01T08:41:11.344Z,98597.61
2018-02-01T08:43:40.534Z,98604.23
2018-02-01T08:46:09.725Z,98598.16
2018-02-01T08:48:38.930Z,98603.68
2018-02-01T08:51:08.176Z,98596.34
2018-02-01T08:53:38.149Z,98600.54
2018-02-01T08:56:07.357Z,98608.03
2018-02-01T08:58:36.586Z,98608.66
2018-02-01T09:01:05.789Z,98601.86
2018-02-01T09:03:35.768Z,98601.86
2018-02-01T09:06:05.032Z,98603.77
2018-02-01T09:08:35.683Z,98608.65
2018-02-01T09:11:04.974Z,98605.33
2018-02-01T09:13:34.179Z,98616.54
2018-02-01T09:16:03.369Z,98608.23
2018-02-01T09:18:32.568Z,98610.46
2018-02-01T09:21:01.897Z,98610.77
2018-02-01T09:23:31.351Z,98605.45
2018-02-01T09:26:00.638Z,98609.69
2018-02-01T09:28:30.601Z,98611.66
2018-02-01T09:30:59.794Z,98611.63
2018-02-01T09:33:29.135Z,98617.27
2018-02-01T09:35:58.376Z,98619.63
2018-02-01T09:38:27.597Z,98619.30
2018-02-01T09:40:56.796Z,98619.03
2018-02-01T09:43:26.020Z,98619.80
2018-02-01T09:45:55.382Z,98626.88
2018-02-01T09:48:24.578Z,98627.16
2018-02-01T09:50:53.846Z,98633.47
2018-02-01T09:53:23.035Z,98637.61
2018-02-01T09:55:53.187Z,98642.27
2018-02-01T09:58:22.403Z,98640.37
2018-02-01T10:00:51.607Z,98640.77
2018-02-01T10:03:20.848Z,98648.80
2018-02-01T10:05:50.829Z,98646.83
2018-02-01T10:08:21.561Z,98646.44
2018-02-01T10:10:51.581Z,98640.73
2018-02-01T10:13:20.778Z,98645.66
2018-02-01T10:15:49.971Z,98640.00
2018-02-01T10:18:19.317Z,98644.14
2018-02-01T10:20:48.564Z,98646.89
2018-02-01T10:23:17.774Z,98645.37
2018-02-01T10:25:46.997Z,98634.83
2018-02-01T10:28:16.974Z,98637.56
2018-02-01T10:30:46.348Z,98634.88
2018-02-01T10:33:16.262Z,98637.61
2018-02-01T10:35:45.555Z,98625.25
2018-02-01T10:38:14.746Z,98635.38
2018-02-01T10:40:44.170Z,98632.94
2018-02-01T10:43:13.420Z,98635.77
2018-02-01T10:45:42.613Z,98624.59
2018-02-01T10:48:12.621Z,98625.98
2018-02-01T10:50:42.606Z,98626.41
2018-02-01T10:53:11.912Z,98630.98
2018-02-01T10:55:41.165Z,98638.06
2018-02-01T10:58:10.375Z,98616.69
2018-02-01T11:00:39.604Z,98608.36
2018-02-01T11:03:08.820Z,98608.48
2018-02-01T11:05:38.817Z,98608.25
2018-02-01T11:08:08.061Z,98612.70
2018-02-01T11:10:37.492Z,98604.03
2018-02-01T11:13:06.690Z,98604.70
2018-02-01T11:15:35.941Z,98608.62
2018-02-01T11:18:05.214Z,98606.80
2018-02-01T11:20:34.588Z,98611.77
2018-02-01T11:23:03.780Z,98599.42
2018-02-01T11:25:32.999Z,98597.42
2018-02-01T11:28:02.220Z,98591.08
2018-02-01T11:30:31.493Z,98597.81
2018-02-01T11:33:00.686Z,98603.69
2018-02-01T11:35:29.929Z,98589.20
2018-02-01T11:37:59.126Z,98590.35
2018-02-01T11:40:28.324Z,98588.80
2018-02-01T11:42:57.517Z,98578.13
2018-02-01T11:45:26.757Z,98575.83
2018-02-01T11:47:55.990Z,98576.89
2018-02-01T11:50:25.163Z,98575.38
2018-02-01T11:52:54.369Z,98574.27
2018-02-01T11:55:23.574Z,98580.53
2018-02-01T11:57:52.812Z,98582.05
2018-02-01T12:00:22.828Z,98573.40
2018-02-01T12:02:52.074Z,98573.73
2018-02-01T12:05:21.372Z,98566.43
2018-02-01T12:07:51.339Z,98573.17
2018-02-01T12:10:20.538Z,98571.95
2018-02-01T12:12:50.516Z,98569.13
2018-02-01T12:15:19.732Z,98572.77
2018-02-01T12:17:48.973Z,98570.13
2018-02-01T12:20:18.176Z,98571.92
2018-02-01T12:22:47.490Z,98565.86
2018-02-01T12:25:16.701Z,98563.75
2018-02-01T12:27:45.900Z,98566.02
2018-02-01T12:30:15.385Z,98557.20
2018-02-01T12:32:44.599Z,98558.99
2018-02-01T12:35:13.805Z,98556.60
2018-02-01T12:37:43.076Z,98562.05
2018-02-01T12:40:12.309Z,98548.44
2018-02-01T12:42:41.574Z,98555.58
2018-02-01T12:45:11.594Z,98559.83
2018-02-01T12:47:40.732Z,98560.94
2018-02-01T12:50:10.743Z,98559.73
2018-02-01T12:52:39.956Z,98560.63
2018-02-01T12:55:09.952Z,98552.63
2018-02-01T12:57:39.302Z,98562.63
2018-02-01T13:00:08.557Z,98553.36
2018-02-01T13:02:37.729Z,98548.95
2018-02-01T13:05:06.972Z,98550.42
2018-02-01T13:07:36.171Z,98551.33
2018-02-01T13:10:06.162Z,98555.94
2018-02-01T13:12:35.360Z,98562.88
2018-02-01T13:15:04.550Z,98568.78
2018-02-01T13:17:33.922Z,98565.86
2018-02-01T13:20:03.105Z,98571.42
2018-02-01T13:22:32.319Z,98565.47
2018-02-01T13:25:01.509Z,98561.79
2018-02-01T13:27:30.726Z,98555.00
2018-02-01T13:29:59.936Z,98558.93
2018-02-01T13:32:29.163Z,98569.81
2018-02-01T13:34:58.362Z,98565.09
2018-02-01T13:37:27.561Z,98565.86
2018-02-01T13:39:57.516Z,98565.25
2018-02-01T13:42:26.715Z,98567.55
2018-02-01T13:44:55.919Z,98555.31
2018-02-01T13:47:25.140Z,98549.80
2018-02-01T13:49:54.339Z,98556.81
2018-02-01T13:52:23.607Z,98557.26
2018-02-01T13:54:52.832Z,98554.09
2018-02-01T13:57:22.100Z,98554.72
2018-02-01T13:59:51.497Z,98553.77
2018-02-01T14:02:21.517Z,98546.58
2018-02-01T14:04:51.691Z,98542.20
2018-02-01T14:07:22.091Z,98538.89
2018-02-01T14:09:51.618Z,98545.80
2018-02-01T14:12:21.581Z,98541.25
2018-02-01T14:14:50.809Z,98541.73
2018-02-01T14:17:20.018Z,98542.17
2018-02-01T14:19:49.232Z,98542.66
2018-02-01T14:22:19.210Z,98549.21
2018-02-01T14:24:48.443Z,98549.32
2018-02-01T14:27:19.165Z,98553.61
2018-02-01T14:29:48.414Z,98558.95
2018-02-01T14:32:17.880Z,98550.79
2018-02-01T14:34:47.858Z,98556.00
2018-02-01T14:37:17.087Z,98554.55
2018-02-01T14:39:46.354Z,98557.72
2018-02-01T14:42:15.812Z,98551.99
2018-02-01T14:44:45.871Z,98556.34
2018-02-01T14:47:15.099Z,98560.03
2018-02-01T14:49:44.289Z,98550.17
2018-02-01T14:52:13.614Z,98554.60
2018-02-01T14:54:42.809Z,98547.36
2018-02-01T14:57:12.887Z,98553.20
2018-02-01T14:59:42.101Z,98557.91
2018-02-01T15:02:11.518Z,98560.43
2018-02-01T15:04:40.704Z,98578.02
2018-02-01T15:07:09.917Z,98562.58
2018-02-01T15:09:40.237Z,98555.72
2018-02-01T15:12:10.195Z,98552.24
2018-02-01T15:14:39.495Z,98554.31
2018-02-01T15:17:08.718Z,98562.77
2018-02-01T15:19:37.918Z,98558.91
2018-02-01T15:22:07.122Z,98564.15
2018-02-01T15:24:36.427Z,98572.97
2018-02-01T15:27:05.674Z,98573.20
2018-02-01T15:29:34.999Z,98579.53
2018-02-01T15:32:04.311Z,98574.70
2018-02-01T15:34:34.087Z,98567.13
2018-02-01T15:37:03.401Z,98568.80
2018-02-01T15:39:32.621Z,98572.41
2018-02-01T15:42:01.881Z,98567.30
2018-02-01T15:44:31.140Z,98566.48
2018-02-01T15:47:00.370Z,98568.02
2018-02-01T15:49:29.614Z,98573.47
2018-02-01T15:51:58.845Z,98584.38
2018-02-01T15:54:28.863Z,98587.79
2018-02-01T15:56:59.152Z,98593.03
2018-02-01T15:59:28.326Z,98602.77
2018-02-01T16:01:57.516Z,98608.47
2018-02-01T16:04:26.733Z,98614.86
2018-02-01T16:06:55.966Z,98610.20
2018-02-01T16:09:25.168Z,98613.22
2018-02-01T16:11:55.178Z,98613.68
2018-02-01T16:14:24.452Z,98622.77
2018-02-01T16:16:53.698Z,98622.20
2018-02-01T16:19:22.928Z,98621.48
2018-02-01T16:21:52.146Z,98629.58
2018-02-01T16:24:21.342Z,98638.66
2018-02-01T16:26:50.653Z,98644.84
2018-02-01T16:29:19.945Z,98643.89
2018-02-01T16:31:49.186Z,98654.81
2018-02-01T16:34:19.159Z,98651.41
2018-02-01T16:36:49.218Z,98662.55
2018-02-01T16:39:19.184Z,98657.50
2018-02-01T16:41:48.391Z,98662.55
2018-02-01T16:44:17.602Z,98657.41
2018-02-01T16:46:46.824Z,98667.45
2018-02-01T16:49:16.818Z,98667.36
2018-02-01T16:51:46.799Z,98667.52
2018-02-01T16:54:16.066Z,98671.47
2018-02-01T16:56:45.300Z,98673.76
2018-02-01T16:59:14.586Z,98666.56
2018-02-01T17:01:43.911Z,98674.02
2018-02-01T17:04:13.184Z,98674.94
2018-02-01T17:06:42.457Z,98678.75
2018-02-01T17:09:12.442Z,98691.70
2018-02-01T17:11:41.710Z,98694.55
2018-02-01T17:14:10.944Z,98692.03
2018-02-01T17:16:40.164Z,98699.00
2018-02-01T17:19:09.400Z,98701.69
2018-02-01T17:21:38.637Z,98701.44
2018-02-01T17:24:07.874Z,98701.27
2018-02-01T17:26:37.084Z,98703.33
2018-02-01T17:29:06.324Z,98713.93
2018-02-01T17:31:35.666Z,98714.16
2018-02-01T17:34:04.883Z,98718.34
2018-02-01T17:36:34.103Z,98716.77
2018-02-01T17:39:03.350Z,98718.36
2018-02-01T17:41:32.613Z,98713.84
2018-02-01T17:44:01.937Z,98720.16
2018-02-01T17:46:31.904Z,98725.30
2018-02-01T17:49:01.194Z,98723.25
2018-02-01T17:51:30.457Z,98731.87
2018-02-01T17:53:59.668Z,98722.13
2018-02-01T17:56:28.932Z,98729.33
2018-02-01T17:58:58.955Z,98735.08
2018-02-01T18:01:28.971Z,98728.66
2018-02-01T18:03:58.963Z,98735.47
2018-02-01T18:06:28.222Z,98729.54
2018-02-01T18:08:57.474Z,98737.58
2018-02-01T18:11:26.859Z,98739.87
2018-02-01T18:13:56.231Z,98728.67
2018-02-01T18:16:25.473Z,98739.80
2018-02-01T18:18:54.678Z,98744.52
2018-02-01T18:21:24.666Z,98743.50
2018-02-01T18:23:53.921Z,98737.71
2018-02-01T18:26:23.927Z,98735.19
2018-02-01T18:28:53.147Z,98732.48
2018-02-01T18:31:22.370Z,98733.50
2018-02-01T18:33:53.172Z,98740.84
2018-02-01T18:36:26.131Z,98745.03
2018-02-01T18:38:55.338Z,98749.67
2018-02-01T18:41:25.310Z,98758.28
2018-02-01T18:43:54.549Z,98764.59
2018-02-01T18:46:24.577Z,98761.75
2018-02-01T18:48:53.772Z,98766.56
2018-02-01T18:51:23.007Z,98753.22
2018-02-01T18:53:52.398Z,98758.44
2018-02-01T18:56:22.440Z,98758.52
2018-02-01T18:58:51.650Z,98767.36
2018-02-01T19:01:20.907Z,98763.25
2018-02-01T19:03:50.274Z,98775.65
2018-02-01T19:06:20.369Z,98776.20
2018-02-01T19:08:50.419Z,98775.33
2018-02-01T19:11:19.807Z,98777.38
2018-02-01T19:13:49.843Z,98783.78
2018-02-01T19:16:19.066Z,98779.13
2018-02-01T19:18:48.321Z,98769.25
2018-02-01T19:21:18.306Z,98776.83
2018-02-01T19:23:47.552Z,98774.94
2018-02-01T19:26:16.773Z,98771.46
2018-02-01T19:28:46.172Z,98781.33
2018-02-01T19:31:15.408Z,98777.36
2018-02-01T19:33:44.716Z,98787.57
2018-02-01T19:36:13.934Z,98778.17
2018-02-01T19:38:43.287Z,98777.28
2018-02-01T19:41:12.526Z,98777.12
2018-02-01T19:43:44.710Z,98780.20
2018-02-01T19:46:13.943Z,98779.64
2018-02-01T19:48:43.198Z,98781.59
2018-02-01T19:51:13.166Z,98786.41
2018-02-01T19:53:42.432Z,98787.47
2018-02-01T19:56:12.427Z,98783.59
2018-02-01T19:58:42.457Z,98781.86
2018-02-01T20:01:11.814Z,98786.83
2018-02-01T20:03:41.044Z,98788.64
2018-02-01T20:06:10.598Z,98781.75
2018-02-01T20:08:39.802Z,98792.09
2018-02-01T20:11:09.118Z,98792.05
2018-02-01T20:13:39.175Z,98786.56
2018-02-01T20:16:09.332Z,98792.17
2018-02-01T20:18:38.559Z,98786.96
2018-02-01T20:21:07.795Z,98787.67
2018-02-01T20:23:37.027Z,98779.45
2018-02-01T20:26:06.249Z,98786.92
2018-02-01T20:28:35.483Z,98780.45
2018-02-01T20:31:04.738Z,98784.48
2018-02-01T20:33:33.997Z,98783.06
2018-02-01T20:36:03.247Z,98783.81
2018-02-01T20:38:32.500Z,98779.55
2018-02-01T20:41:01.702Z,98782.63
2018-02-01T20:43:30.964Z,98783.53
2018-02-01T20:46:01.071Z,98774.19
2018-02-01T20:48:31.070Z,98782.23
2018-02-01T20:51:00.405Z,98783.38
2018-02-01T20:53:29.639Z,98784.72
2018-02-01T20:55:58.877Z,98777.78
2018-02-01T20:58:28.891Z,98780.19
2018-02-01T21:00:58.955Z,98777.89
2018-02-01T21:03:28.248Z,98784.48
2018-02-01T21:05:57.504Z,98782.52
2018-02-01T21:08:26.748Z,98780.30
2018-02-01T21:10:55.953Z,98786.73
2018-02-01T21:13:25.234Z,98787.28
2018-02-01T21:15:55.202Z,98780.02
2018-02-01T21:18:26.099Z,98777.58
2018-02-01T21:20:55.291Z,98778.18
2018-02-01T21:23:24.495Z,98783.70
2018-02-01T21:25:53.723Z,98781.37
2018-02-01T21:28:22.974Z,98789.81
2018-02-01T21:30:52.232Z,98783.58
2018-02-01T21:33:21.434Z,98782.95
2018-02-01T21:35:51.424Z,98787.92
2018-02-01T21:38:20.636Z,98780.55
2018-02-01T21:40:49.854Z,98781.64
2018-02-01T21:43:19.820Z,98781.37
2018-02-01T21:45:49.040Z,98776.08
2018-02-01T21:48:18.305Z,98780.19
2018-02-01T21:50:47.503Z,98779.44
2018-02-01T21:53:16.749Z,98792.02
2018-02-01T21:55:45.984Z,98786.73
2018-02-01T21:58:15.233Z,98787.37
2018-02-01T22:00:46.134Z,98781.45
2018-02-01T22:03:16.282Z,98775.17
2018-02-01T22:05:45.502Z,98779.50
2018-02-01T22:08:14.768Z,98776.43
2018-02-01T22:10:43.966Z,98771.89
2018-02-01T22:13:14.816Z,98777.61
2018-02-01T22:15:44.054Z,98774.53
2018-02-01T22:18:14.011Z,98773.42
2018-02-01T22:20:43.218Z,98778.63
2018-02-01T22:23:12.416Z,98778.05
2018-02-01T22:25:41.646Z,98778.35
2018-02-01T22:28:10.850Z,98777.02
2018-02-01T22:30:40.084Z,98777.58
2018-02-01T22:33:09.547Z,98781.23
2018-02-01T22:35:38.736Z,98781.72
2018-02-01T22:38:07.947Z,98777.89
2018-02-01T22:40:38.143Z,98776.20
2018-02-01T22:43:07.374Z,98774.31
2018-02-01T22:45:36.706Z,98781.77
2018-02-01T22:48:06.042Z,98778.53
2018-02-01T22:50:35.265Z,98779.12
2018-02-01T22:53:04.534Z,98777.58
2018-02-01T22:55:34.587Z,98777.97
2018-02-01T22:58:04.562Z,98779.55
2018-02-01T23:00:33.782Z,98786.42
2018-02-01T23:03:03.779Z,98785.23
2018-02-01T23:05:32.990Z,98791.34
2018-02-01T23:08:03.023Z,98785.03
2018-02-01T23:10:33.018Z,98773.42
2018-02-01T23:13:02.196Z,98785.58
2018-02-01T23:15:31.448Z,98783.61
2018-02-01T23:18:01.417Z,98779.34
2018-02-01T23:20:30.626Z,98775.88
2018-02-01T23:22:59.914Z,98787.24
2018-02-01T23:25:29.075Z,98781.16
2018-02-01T23:27:58.503Z,98785.27
2018-02-01T23:30:27.715Z,98794.77
2018-02-01T23:32:56.995Z,98789.41
2018-02-01T23:35:26.333Z,98788.74
2018-02-01T23:37:56.328Z,98788.14
2018-02-01T23:40:25.558Z,98781.83
2018-02-01T23:42:55.571Z,98780.56
2018-02-01T23:45:24.839Z,98779.96
2018-02-01T23:47:54.158Z,98768.75
2018-02-01T23:50:24.150Z,98770.56
2018-02-01T23:52:53.343Z,98771.06
2018-02-01T23:55:22.755Z,98765.41
2018-02-01T23:57:52.051Z,98755.77
